createdAt,value
2019-03-24T00:02:27.299Z,11.15
2019-03-24T00:04:58.595Z,13.10
2019-03-24T00:07:29.935Z,12.23
2019-03-24T00:10:01.296Z,13.28
2019-03-24T00:12:32.661Z,12.07
2019-03-24T00:15:05.855Z,12.75
2019-03-24T00:17:37.151Z,12.07
2019-03-24T00:20:10.201Z,12.58
2019-03-24T00:22:41.356Z,11.83
2019-03-24T00:25:12.759Z,12.47
2019-03-24T00:27:43.956Z,12.55
2019-03-24T00:30:15.204Z,10.63
2019-03-24T00:32:46.482Z,11.57
2019-03-24T00:35:17.806Z,12.40
2019-03-24T00:37:49.056Z,12.80
2019-03-24T00:40:20.393Z,11.35
2019-03-24T00:42:51.693Z,11.85
2019-03-24T00:45:23.018Z,11.68
2019-03-24T00:47:54.369Z,12.07
2019-03-24T00:50:25.649Z,12.60
2019-03-24T00:52:56.970Z,12.93
2019-03-24T00:55:28.260Z,12.15
2019-03-24T00:57:59.479Z,12.23
2019-03-24T01:00:45.050Z,11.20
2019-03-24T01:03:17.472Z,11.12
2019-03-24T01:05:48.891Z,11.08
2019-03-24T01:08:20.215Z,12.23
2019-03-24T01:10:51.625Z,11.83
2019-03-24T01:13:22.970Z,11.90
2019-03-24T01:15:54.557Z,12.00
2019-03-24T01:18:25.874Z,11.95
2019-03-24T01:20:57.191Z,11.80
2019-03-24T01:23:28.489Z,11.65
2019-03-24T01:25:59.825Z,11.63
2019-03-24T01:28:31.104Z,12.18
2019-03-24T01:31:02.393Z,11.30
2019-03-24T01:33:33.719Z,11.43
2019-03-24T01:36:05.063Z,11.22
2019-03-24T01:38:37.755Z,11.55
2019-03-24T01:41:09.089Z,10.93
2019-03-24T01:43:40.411Z,11.18
2019-03-24T01:46:11.881Z,11.43
2019-03-24T01:48:43.160Z,11.43
2019-03-24T01:51:17.914Z,11.28
2019-03-24T01:53:50.111Z,11.45
2019-03-24T01:56:22.452Z,11.00
2019-03-24T01:58:53.651Z,11.00
2019-03-24T02:01:25.003Z,10.88
2019-03-24T02:03:56.186Z,10.25
2019-03-24T02:06:27.440Z,10.65
2019-03-24T02:08:58.737Z,10.78
2019-03-24T02:11:30.087Z,10.90
2019-03-24T02:14:01.311Z,10.75
2019-03-24T02:16:32.659Z,11.05
2019-03-24T02:19:03.880Z,10.78
2019-03-24T02:21:35.206Z,10.63
2019-03-24T02:24:06.438Z,10.55
2019-03-24T02:26:37.643Z,10.43
2019-03-24T02:29:08.853Z,10.68
2019-03-24T02:31:40.054Z,11.15
2019-03-24T02:34:11.550Z,10.88
2019-03-24T02:36:44.001Z,10.60
2019-03-24T02:39:15.380Z,10.78
2019-03-24T02:41:46.875Z,10.53
2019-03-24T02:44:20.346Z,10.55
2019-03-24T02:46:51.576Z,10.35
2019-03-24T02:49:22.897Z,10.08
2019-03-24T02:51:54.545Z,9.73
2019-03-24T02:54:25.745Z,10.63
2019-03-24T02:56:57.040Z,10.60
2019-03-24T02:59:29.634Z,9.55
2019-03-24T03:02:00.819Z,9.30
2019-03-24T03:04:32.048Z,9.73
2019-03-24T03:07:04.288Z,9.78
2019-03-24T03:09:36.575Z,9.43
2019-03-24T03:12:07.822Z,9.50
2019-03-24T03:14:40.432Z,10.40
2019-03-24T03:17:11.749Z,10.75
2019-03-24T03:19:43.078Z,10.45
2019-03-24T03:22:15.503Z,10.25
2019-03-24T03:24:46.878Z,10.90
2019-03-24T03:27:18.222Z,9.65
2019-03-24T03:29:49.405Z,10.10
2019-03-24T03:32:20.708Z,10.68
2019-03-24T03:34:52.005Z,9.20
2019-03-24T03:37:23.464Z,9.80
2019-03-24T03:39:57.891Z,10.65
2019-03-24T03:42:28.124Z,10.05
2019-03-24T03:44:59.529Z,10.32
2019-03-24T03:47:31.138Z,10.82
2019-03-24T03:50:02.439Z,9.40
2019-03-24T03:52:33.702Z,9.98
2019-03-24T03:55:05.988Z,10.88
2019-03-24T03:57:37.530Z,9.80
2019-03-24T04:00:09.065Z,10.30
2019-03-24T04:02:40.319Z,10.18
2019-03-24T04:05:12.766Z,9.85
2019-03-24T04:07:43.924Z,9.95
2019-03-24T04:10:15.116Z,8.80
2019-03-24T04:12:47.394Z,8.73
2019-03-24T04:15:18.529Z,10.30
2019-03-24T04:17:49.773Z,8.90
2019-03-24T04:20:20.994Z,8.80
2019-03-24T04:22:53.291Z,9.03
2019-03-24T04:25:24.466Z,9.18
2019-03-24T04:27:55.673Z,9.88
2019-03-24T04:30:27.841Z,9.33
2019-03-24T04:32:59.059Z,8.78
2019-03-24T04:35:30.629Z,9.08
2019-03-24T04:38:01.855Z,9.05
2019-03-24T04:40:33.066Z,8.68
2019-03-24T04:43:04.343Z,9.35
2019-03-24T04:45:36.427Z,8.63
2019-03-24T04:48:07.615Z,9.23
2019-03-24T04:50:38.829Z,8.95
2019-03-24T04:53:10.011Z,31.85
2019-03-24T04:55:41.307Z,12.95
2019-03-24T04:58:12.639Z,48.28
2019-03-24T05:00:44.068Z,21.50
2019-03-24T05:03:15.389Z,20.10
2019-03-24T05:05:46.748Z,10.93
2019-03-24T05:08:18.052Z,9.78
2019-03-24T05:10:49.291Z,9.10
2019-03-24T05:13:20.549Z,9.45
2019-03-24T05:15:53.135Z,11.55
2019-03-24T05:18:24.836Z,9.58
2019-03-24T05:20:56.299Z,13.90
2019-03-24T05:23:27.643Z,17.23
2019-03-24T05:25:59.051Z,11.08
2019-03-24T05:28:30.982Z,15.20
2019-03-24T05:31:02.292Z,9.43
2019-03-24T05:33:33.576Z,8.95
2019-03-24T05:36:04.811Z,8.48
2019-03-24T05:38:36.042Z,8.40
2019-03-24T05:41:07.185Z,8.08
2019-03-24T05:43:38.437Z,8.08
2019-03-24T05:46:10.001Z,7.47
2019-03-24T05:48:41.173Z,7.25
2019-03-24T05:51:12.304Z,7.72
2019-03-24T05:53:43.524Z,7.47
2019-03-24T05:56:14.936Z,8.30
2019-03-24T05:58:46.277Z,7.75
2019-03-24T06:01:17.519Z,8.83
2019-03-24T06:03:48.729Z,8.33
2019-03-24T06:06:19.896Z,8.35
2019-03-24T06:08:51.084Z,7.97
2019-03-24T06:11:23.289Z,8.50
2019-03-24T06:13:55.581Z,8.43
2019-03-24T06:16:26.741Z,8.48
2019-03-24T06:18:57.873Z,8.58
2019-03-24T06:21:29.034Z,8.33
2019-03-24T06:24:00.245Z,7.58
2019-03-24T06:26:31.405Z,8.30
2019-03-24T06:29:02.728Z,8.18
2019-03-24T06:31:33.961Z,6.85
2019-03-24T06:34:06.228Z,7.15
2019-03-24T06:36:37.451Z,7.80
2019-03-24T06:39:08.757Z,7.78
2019-03-24T06:41:40.045Z,7.58
2019-03-24T06:44:11.246Z,7.40
2019-03-24T06:46:42.434Z,22.93
2019-03-24T06:49:13.740Z,9.30
2019-03-24T06:51:45.307Z,8.85
2019-03-24T06:54:16.715Z,7.97
2019-03-24T06:56:49.046Z,7.80
2019-03-24T06:59:20.273Z,7.50
2019-03-24T07:01:51.496Z,7.55
2019-03-24T07:04:22.703Z,6.60
2019-03-24T07:06:54.088Z,7.40
2019-03-24T07:09:25.277Z,7.30
2019-03-24T07:11:56.517Z,6.97
2019-03-24T07:14:28.765Z,7.05
2019-03-24T07:16:59.989Z,7.10
2019-03-24T07:19:31.212Z,6.28
2019-03-24T07:22:02.438Z,5.95
2019-03-24T07:24:33.682Z,5.97
2019-03-24T07:27:04.828Z,5.50
2019-03-24T07:29:36.199Z,6.20
2019-03-24T07:32:07.826Z,6.20
2019-03-24T07:34:39.192Z,6.20
2019-03-24T07:37:10.424Z,5.55
2019-03-24T07:39:41.561Z,5.87
2019-03-24T07:42:12.757Z,5.10
2019-03-24T07:44:43.855Z,5.35
2019-03-24T07:47:15.244Z,5.83
2019-03-24T07:49:46.493Z,5.20
2019-03-24T07:52:17.699Z,3.80
2019-03-24T07:54:50.484Z,4.37
2019-03-24T07:57:21.785Z,4.50
2019-03-24T07:59:53.141Z,5.00
2019-03-24T08:02:28.032Z,5.00
2019-03-24T08:05:02.291Z,5.22
2019-03-24T08:07:50.933Z,5.15
2019-03-24T08:10:22.182Z,5.50
2019-03-24T08:12:53.625Z,5.03
2019-03-24T08:15:24.871Z,4.35
2019-03-24T08:17:56.083Z,4.78
2019-03-24T08:20:27.308Z,4.75
2019-03-24T08:22:58.580Z,3.60
2019-03-24T08:25:29.711Z,4.22
2019-03-24T08:28:00.978Z,4.80
2019-03-24T08:30:34.017Z,4.75
2019-03-24T08:33:05.797Z,4.60
2019-03-24T08:35:39.925Z,4.65
2019-03-24T08:38:11.152Z,4.97
2019-03-24T08:40:42.378Z,4.60
2019-03-24T08:43:13.598Z,4.37
2019-03-24T08:45:48.590Z,5.00
2019-03-24T08:50:50.143Z,4.58
2019-03-24T08:53:21.402Z,4.60
2019-03-24T08:55:52.606Z,4.12
2019-03-24T08:58:23.831Z,5.20
2019-03-24T09:00:55.037Z,4.80
2019-03-24T09:03:26.385Z,4.85
2019-03-24T09:05:57.590Z,4.60
2019-03-24T09:08:28.874Z,4.55
2019-03-24T09:11:02.694Z,4.87
2019-03-24T09:13:33.928Z,4.65
2019-03-24T09:16:05.238Z,4.75
2019-03-24T09:18:36.504Z,4.85
2019-03-24T09:21:07.757Z,4.78
2019-03-24T09:23:39.025Z,5.25
2019-03-24T09:26:10.389Z,5.25
2019-03-24T09:28:42.021Z,5.00
2019-03-24T09:31:14.533Z,4.78
2019-03-24T09:33:45.781Z,5.03
2019-03-24T09:36:17.068Z,4.90
2019-03-24T09:38:48.249Z,4.90
2019-03-24T09:41:19.378Z,5.00
2019-03-24T09:43:50.759Z,5.58
2019-03-24T09:46:23.223Z,4.45
2019-03-24T09:49:02.634Z,5.00
2019-03-24T09:51:27.311Z,4.78
2019-03-24T09:53:59.710Z,5.17
2019-03-24T09:56:31.007Z,5.75
2019-03-24T09:59:02.241Z,4.72
2019-03-24T10:01:34.046Z,4.80
2019-03-24T10:04:08.208Z,5.03
2019-03-24T10:06:39.590Z,5.00
2019-03-24T10:09:10.880Z,4.58
2019-03-24T10:11:45.489Z,4.20
2019-03-24T10:14:18.732Z,4.67
2019-03-24T10:16:50.213Z,4.83
2019-03-24T10:19:21.501Z,4.90
2019-03-24T10:21:52.890Z,5.08
2019-03-24T10:24:24.854Z,5.90
2019-03-24T10:26:56.149Z,6.12
2019-03-24T10:29:27.609Z,5.03
2019-03-24T10:31:59.858Z,5.25
2019-03-24T10:34:31.151Z,5.28
2019-03-24T10:37:02.563Z,5.33
2019-03-24T10:39:34.537Z,5.50
2019-03-24T10:42:05.996Z,4.28
2019-03-24T10:44:40.456Z,4.95
2019-03-24T10:47:12.097Z,4.72
2019-03-24T10:49:43.546Z,4.67
2019-03-24T10:52:15.000Z,4.50
2019-03-24T10:54:46.246Z,4.92
2019-03-24T10:57:17.599Z,4.72
2019-03-24T10:59:50.090Z,4.85
2019-03-24T11:02:21.289Z,5.00
2019-03-24T11:04:54.793Z,4.72
2019-03-24T11:07:26.000Z,5.80
2019-03-24T11:09:58.207Z,6.00
2019-03-24T11:12:29.447Z,6.80
2019-03-24T11:15:00.673Z,6.97
2019-03-24T11:17:33.000Z,7.58
2019-03-24T11:20:05.897Z,8.65
2019-03-24T11:22:37.142Z,8.28
2019-03-24T11:25:09.401Z,7.78
2019-03-24T11:27:41.465Z,8.60
2019-03-24T11:30:13.587Z,7.95
2019-03-24T11:32:45.033Z,6.70
2019-03-24T11:35:17.385Z,5.70
2019-03-24T11:37:48.668Z,5.85
2019-03-24T11:40:21.609Z,5.53
2019-03-24T11:42:53.524Z,5.40
2019-03-24T11:45:24.965Z,6.22
2019-03-24T11:47:56.571Z,9.08
2019-03-24T11:50:29.532Z,9.45
2019-03-24T11:53:01.929Z,5.87
2019-03-24T11:55:38.352Z,5.90
2019-03-24T11:58:10.180Z,5.08
2019-03-24T12:00:41.566Z,5.25
2019-03-24T12:03:13.068Z,5.03
2019-03-24T12:05:44.246Z,4.33
2019-03-24T12:08:17.418Z,4.45
2019-03-24T12:10:50.560Z,4.55
2019-03-24T12:13:24.981Z,4.70
2019-03-24T12:16:01.645Z,8.13
2019-03-24T12:18:32.884Z,4.78
2019-03-24T12:21:04.385Z,5.15
2019-03-24T12:23:35.648Z,4.87
2019-03-24T12:26:07.107Z,4.35
2019-03-24T12:28:42.330Z,4.70
2019-03-24T12:31:33.738Z,4.30
2019-03-24T12:34:05.691Z,5.00
2019-03-24T12:36:45.853Z,5.30
2019-03-24T12:39:22.583Z,4.95
2019-03-24T12:41:54.639Z,4.78
2019-03-24T12:44:32.498Z,4.87
2019-03-24T12:47:06.490Z,5.40
2019-03-24T12:49:47.221Z,5.67
2019-03-24T12:52:29.036Z,5.47
2019-03-24T12:55:12.946Z,5.47
2019-03-24T12:57:47.609Z,5.50
2019-03-24T13:00:38.386Z,5.62
2019-03-24T13:03:15.368Z,5.50
2019-03-24T13:05:46.804Z,5.67
2019-03-24T13:08:23.021Z,5.85
2019-03-24T13:11:05.629Z,5.70
2019-03-24T13:13:41.432Z,6.30
2019-03-24T13:16:16.689Z,6.25
2019-03-24T13:18:51.153Z,5.60
2019-03-24T13:21:28.428Z,5.70
2019-03-24T13:24:00.449Z,6.10
2019-03-24T13:26:34.192Z,5.60
2019-03-24T13:29:09.459Z,6.58
2019-03-24T13:31:53.425Z,6.10
2019-03-24T13:34:29.652Z,5.92
2019-03-24T13:37:10.392Z,6.50
2019-03-24T13:39:45.925Z,6.92
2019-03-24T13:42:21.234Z,6.20
2019-03-24T13:44:56.633Z,5.62
2019-03-24T13:47:32.882Z,5.80
2019-03-24T13:50:07.751Z,4.85
2019-03-24T13:52:45.740Z,5.45
2019-03-24T13:55:18.560Z,6.22
2019-03-24T13:57:57.523Z,6.00
2019-03-24T14:00:30.167Z,5.83
2019-03-24T14:03:07.904Z,6.45
2019-03-24T14:05:39.196Z,6.28
2019-03-24T14:08:13.376Z,6.35
2019-03-24T14:10:47.078Z,6.75
2019-03-24T14:13:23.462Z,6.08
2019-03-24T14:16:02.827Z,6.50
2019-03-24T14:18:34.025Z,6.08
2019-03-24T14:21:13.396Z,5.90
2019-03-24T14:23:51.349Z,6.45
2019-03-24T14:26:26.161Z,6.55
2019-03-24T14:29:09.765Z,6.70
2019-03-24T14:31:45.469Z,6.85
2019-03-24T14:34:18.640Z,6.28
2019-03-24T14:36:54.037Z,6.00
2019-03-24T14:39:25.344Z,6.65
2019-03-24T14:41:56.569Z,7.00
2019-03-24T14:44:28.850Z,6.33
2019-03-24T14:47:00.189Z,6.40
2019-03-24T14:49:31.342Z,7.45
2019-03-24T14:52:02.716Z,7.53
2019-03-24T14:54:33.987Z,7.92
2019-03-24T14:57:05.129Z,7.78
2019-03-24T14:59:36.393Z,8.58
2019-03-24T15:02:07.723Z,8.80
2019-03-24T15:04:39.088Z,9.10
2019-03-24T15:07:12.983Z,10.03
2019-03-24T15:09:46.305Z,9.80
2019-03-24T15:12:17.474Z,10.82
2019-03-24T15:14:55.878Z,10.53
2019-03-24T15:17:40.533Z,11.83
2019-03-24T15:22:48.350Z,10.82
2019-03-24T15:25:24.189Z,11.15
2019-03-24T15:27:58.239Z,11.40
2019-03-24T15:30:34.384Z,10.98
2019-03-24T15:33:07.878Z,11.78
2019-03-24T15:35:39.265Z,12.73
2019-03-24T15:38:10.672Z,11.93
2019-03-24T15:40:42.148Z,13.10
2019-03-24T15:43:15.460Z,13.55
2019-03-24T15:45:46.818Z,14.07
2019-03-24T15:48:18.172Z,14.78
2019-03-24T15:50:50.503Z,14.50
2019-03-24T15:53:24.018Z,15.72
2019-03-24T15:55:55.355Z,15.65
2019-03-24T15:58:26.690Z,17.25
2019-03-24T16:01:01.649Z,18.12
2019-03-24T16:03:33.305Z,18.98
2019-03-24T16:06:08.613Z,19.10
2019-03-24T16:08:42.699Z,20.52
2019-03-24T16:11:16.209Z,22.40
2019-03-24T16:13:47.972Z,20.32
2019-03-24T16:16:25.384Z,21.02
2019-03-24T16:19:13.400Z,20.82
2019-03-24T16:22:02.899Z,22.05
2019-03-24T16:24:54.806Z,21.48
2019-03-24T16:27:26.338Z,20.92
2019-03-24T16:32:32.332Z,21.65
2019-03-24T16:35:13.800Z,21.65
2019-03-24T16:37:47.948Z,22.07
2019-03-24T16:40:24.613Z,21.97
2019-03-24T16:42:58.582Z,22.00
2019-03-24T16:45:29.964Z,25.30
2019-03-24T16:48:01.234Z,28.17
2019-03-24T16:50:32.601Z,28.40
2019-03-24T16:53:03.851Z,34.20
2019-03-24T16:55:35.139Z,35.00
2019-03-24T16:58:08.528Z,33.80
2019-03-24T17:00:39.835Z,33.95
2019-03-24T17:03:11.152Z,33.78
2019-03-24T17:05:42.428Z,33.38
2019-03-24T17:08:13.778Z,32.20
2019-03-24T17:10:45.226Z,33.15
2019-03-24T17:13:16.739Z,32.00
2019-03-24T17:15:48.257Z,32.85
2019-03-24T17:18:19.549Z,32.93
2019-03-24T17:20:50.907Z,32.20
2019-03-24T17:23:22.211Z,31.37
2019-03-24T17:25:53.608Z,30.82
2019-03-24T17:28:24.912Z,32.42
2019-03-24T17:30:56.265Z,32.42
2019-03-24T17:33:27.600Z,30.75
2019-03-24T17:36:02.775Z,32.85
2019-03-24T17:38:34.077Z,31.02
2019-03-24T17:41:05.445Z,30.12
2019-03-24T17:43:36.769Z,31.50
2019-03-24T17:46:08.120Z,28.17
2019-03-24T17:48:39.429Z,28.52
2019-03-24T17:51:12.347Z,26.80
2019-03-24T17:53:43.655Z,25.25
2019-03-24T17:56:14.956Z,26.62
2019-03-24T17:58:46.344Z,26.00
2019-03-24T18:01:17.659Z,24.20
2019-03-24T18:03:49.066Z,22.52
2019-03-24T18:06:20.453Z,23.90
2019-03-24T18:08:52.842Z,23.27
2019-03-24T18:11:24.160Z,21.77
2019-03-24T18:13:55.493Z,23.05
2019-03-24T18:16:26.810Z,21.70
2019-03-24T18:18:58.057Z,22.13
2019-03-24T18:21:29.318Z,20.12
2019-03-24T18:24:00.657Z,20.43
2019-03-24T18:26:33.068Z,21.17
2019-03-24T18:29:05.488Z,20.02
2019-03-24T18:31:36.808Z,17.25
2019-03-24T18:34:08.149Z,17.10
2019-03-24T18:36:39.461Z,16.48
2019-03-24T18:39:14.041Z,17.67
2019-03-24T18:41:46.458Z,17.07
2019-03-24T18:44:18.848Z,19.05
2019-03-24T18:46:50.188Z,17.73
2019-03-24T18:49:21.505Z,17.82
2019-03-24T18:51:52.807Z,17.77
2019-03-24T18:54:24.171Z,17.65
2019-03-24T18:56:57.820Z,17.25
2019-03-24T18:59:29.173Z,17.00
2019-03-24T19:02:00.553Z,17.20
2019-03-24T19:04:31.874Z,15.15
2019-03-24T19:07:03.552Z,15.58
2019-03-24T19:09:34.932Z,16.32
2019-03-24T19:12:06.375Z,16.80
2019-03-24T19:14:40.124Z,16.05
2019-03-24T19:17:11.162Z,15.70
2019-03-24T19:19:42.668Z,14.53
2019-03-24T19:22:14.010Z,14.43
2019-03-24T19:24:45.326Z,13.95
2019-03-24T19:27:18.011Z,13.45
2019-03-24T19:29:49.448Z,12.10
2019-03-24T19:32:20.785Z,12.00
2019-03-24T19:34:52.243Z,11.57
2019-03-24T19:37:23.655Z,10.08
2019-03-24T19:39:56.133Z,9.73
2019-03-24T19:42:27.381Z,9.90
2019-03-24T19:45:00.318Z,9.43
2019-03-24T19:47:31.559Z,9.93
2019-03-24T19:50:05.251Z,9.53
2019-03-24T19:52:44.369Z,10.05
2019-03-24T19:55:09.476Z,10.45
2019-03-24T19:57:41.821Z,11.20
2019-03-24T20:00:13.191Z,10.78
2019-03-24T20:02:44.589Z,10.38
2019-03-24T20:05:15.889Z,9.93
2019-03-24T20:07:48.578Z,9.58
2019-03-24T20:10:22.009Z,9.95
2019-03-24T20:12:53.213Z,9.73
2019-03-24T20:15:25.937Z,8.50
2019-03-24T20:17:57.219Z,9.58
2019-03-24T20:20:28.473Z,9.23
2019-03-24T20:22:59.598Z,8.35
2019-03-24T20:25:30.883Z,8.80
2019-03-24T20:28:02.067Z,9.23
2019-03-24T20:30:34.216Z,9.68
2019-03-24T20:33:05.487Z,9.45
2019-03-24T20:35:36.737Z,9.63
2019-03-24T20:38:07.928Z,9.03
2019-03-24T20:40:39.123Z,9.85
2019-03-24T20:43:12.106Z,9.65
2019-03-24T20:45:43.345Z,8.85
2019-03-24T20:48:17.086Z,9.43
2019-03-24T20:50:48.353Z,10.72
2019-03-24T20:53:21.019Z,10.28
2019-03-24T20:55:54.364Z,11.78
2019-03-24T20:58:32.845Z,11.22
2019-03-24T21:01:04.291Z,12.40
2019-03-24T21:03:37.241Z,12.15
2019-03-24T21:06:08.587Z,11.70
2019-03-24T21:08:39.888Z,12.45
2019-03-24T21:11:11.357Z,11.90
2019-03-24T21:13:45.166Z,13.15
2019-03-24T21:16:15.926Z,12.90
2019-03-24T21:18:47.160Z,13.00
2019-03-24T21:21:20.597Z,14.60
2019-03-24T21:23:52.184Z,14.53
2019-03-24T21:26:23.536Z,14.70
2019-03-24T21:28:54.878Z,16.77
2019-03-24T21:31:26.231Z,16.35
2019-03-24T21:33:57.539Z,15.53
2019-03-24T21:36:28.855Z,16.32
2019-03-24T21:39:00.043Z,17.40
2019-03-24T21:41:32.000Z,19.95
2019-03-24T21:44:03.311Z,20.70
2019-03-24T21:46:34.722Z,22.02
2019-03-24T21:49:06.061Z,21.33
2019-03-24T21:51:37.476Z,22.57
2019-03-24T21:54:08.844Z,23.22
2019-03-24T21:56:40.074Z,25.02
2019-03-24T21:59:11.404Z,24.45
2019-03-24T22:01:42.718Z,25.23
2019-03-24T22:04:14.038Z,25.00
2019-03-24T22:06:45.485Z,26.75
2019-03-24T22:09:16.782Z,27.13
2019-03-24T22:11:47.961Z,26.30
2019-03-24T22:14:19.198Z,29.37
2019-03-24T22:16:50.427Z,29.10
2019-03-24T22:19:21.689Z,27.73
2019-03-24T22:21:52.833Z,29.12
2019-03-24T22:24:24.120Z,30.20
2019-03-24T22:26:55.415Z,30.52
2019-03-24T22:29:26.782Z,31.52
2019-03-24T22:31:58.486Z,32.53
2019-03-24T22:34:29.755Z,31.55
2019-03-24T22:37:00.975Z,31.97
2019-03-24T22:39:32.207Z,34.18
2019-03-24T22:42:04.090Z,34.75
2019-03-24T22:44:36.424Z,32.63
2019-03-24T22:47:07.711Z,36.00
2019-03-24T22:49:38.985Z,36.25
2019-03-24T22:52:10.323Z,34.30
2019-03-24T22:54:41.636Z,32.05
2019-03-24T22:57:12.933Z,31.75
2019-03-24T22:59:44.274Z,29.25
2019-03-24T23:02:15.588Z,29.98
2019-03-24T23:04:46.858Z,30.45
2019-03-24T23:07:18.182Z,32.42
2019-03-24T23:09:49.502Z,33.48
2019-03-24T23:12:20.835Z,30.85
2019-03-24T23:14:52.204Z,33.45
2019-03-24T23:17:23.507Z,30.30
2019-03-24T23:19:54.832Z,30.62
2019-03-24T23:22:28.150Z,30.00
2019-03-24T23:24:59.480Z,29.52
2019-03-24T23:27:30.785Z,30.45
2019-03-24T23:30:03.714Z,30.55
2019-03-24T23:32:35.057Z,29.42
2019-03-24T23:35:07.167Z,28.95
2019-03-24T23:37:38.486Z,28.12
2019-03-24T23:40:09.809Z,28.62
2019-03-24T23:42:41.101Z,29.75
2019-03-24T23:45:12.435Z,30.02
2019-03-24T23:47:43.699Z,28.42
2019-03-24T23:50:15.054Z,31.37
2019-03-24T23:52:46.543Z,30.62
2019-03-24T23:55:19.380Z,31.37
2019-03-24T23:57:51.054Z,30.23
